Regina International Airport
CYQR : now visible

Airfield :











YOU CAN JOIN US ON...

 
LOGIN :

Register | Disclaimer

   EN    FR    IT 

 









Legend :    VFR   Marginal VFR   IFR   Intensive IFR   Very Intensive IFR
Visi :
Ceiling :
>= 8 km
>= 3000ft
5 to 8 km
1000 to 3000 ft
1500m to 5 km
500 to 1000 ft
800 to 1500m
200 to 500 ft
< 800m
< 200 ft
Symbols :   Thunderstorms  Fog  Heavy snow  Heavy precipitations  Wind > 20 kt







- Airport Elevation : 1894 ft
- IATA code : YQR


CYQR - Regina International

CURRENT METAR :
  • 260400Z 29008KT 15SM BKN160 13/12 A2981 RMK AC5 SLP103 DENSITY ALT 2200FT

EXPIRED METARs :
  • 260300Z 27008KT 15SM FEW090 SCT120 13/12 A2979 RMK AC1AC3 SLP099 DENSITY ALT 2200FT
  • 260200Z 33006KT 15SM FEW020TCU BKN100 BKN280 15/12 A2978 RMK TCU1AC4CI1 SLP092 DENSITY ALT 2500FT

TAF TAF CYQR
Valid from the 26 at 00:00 until the 27 at 00:00 UTC


252338Z 2600/2624 32012KT P6SM FEW020 SCT090 BKN120
TEMPO 2600/2605 P6SM -SHRA VCTS BKN020CB BKN090 BKN120
FM260500 30012KT P6SM SCT050
FM261600 31018G28KT P6SM BKN030
PROB30 2618/2624 VRB20G35KT 5SM TSRA BKN030CB RMK NXT FCST BY 260600Z
No reported NOTAMs for that airfield.



MET'MAP, your aeronautical weather chart ! - Copyright ORBIFLY December 2007 - Disclaimer

ORBIFLY MET'MAP TEAM :

Programming & Development : Alexandra Zaïnal
Concept & Development : Baudouin d'Aumeries
Co-Development & Prog : Marc-Olivier Méhu
Technical & hardware support : Manuel Goepfert

Contact : metmap@orbifly.com




SOURCES & CREDITS :

   NOAA       Earth
Advisory